Airfield :
LOGIN :

Register | Disclaimer

   EN    FR    IT 

 










Legend :    VFR   Marginal VFR   IFR   Intensive IFR   Very Intensive IFR
Visi :
Ceiling :
>= 8 km
>= 3000ft
5 to 8 km
1000 to 3000 ft
1500m to 5 km
500 to 1000 ft
800 to 1500m
200 to 500 ft
< 800m
< 200 ft
Symbols :   Thunderstorms  Fog  Heavy snow  Heavy precipitations  Wind > 20 kt
SIGMETs :     Misc.  Thunderstorms  Icing  Turbulence  Mountain Waves  Volcanic Ashes







- Airport Elevation : 779 ft
- IATA code : CMF
- Download approach charts


LFLB - Chambery / Aix-Les-Bains

CURRENT METAR :
  • 220600Z AUTO 19010KT 5000 RA BR FEW008/// BKN041/// OVC050/// ///TCU 07/05 Q1019 TEMPO SCT008 OVC025

EXPIRED METARs :
  • 220530Z AUTO 21010KT 7000 RA FEW006/// SCT029/// BKN042/// ///CB 07/06 Q1019 TEMPO 4000 RA SCT008 OVC025
  • 220500Z AUTO 21008KT 180V270 7000 RA FEW007/// SCT036/// BKN042/// ///TCU 07/06 Q1019
  • 220430Z AUTO 20010KT 9999 -RA FEW009/// SCT039/// BKN045/// ///TCU 07/06 Q1019
  • 220400Z AUTO 18013KT 6000 RA FEW011/// BKN043/// BKN049/// ///TCU 07/06 Q1019
  • 220330Z AUTO VRB03KT 5000 RA BR FEW005/// BKN039/// BKN047/// ///TCU 07/06 Q1019 TEMPO SCT010 OVC023

TAF TAF LFLB
Valid from the 22 at 06:00 until the 23 at 06:00 UTC


220500Z 2206/2306 18008KT 9999 -RA FEW008 SCT020 OVC035
TEMPO 2206/2210 4000 RA SCT008 OVC025
BECMG 2221/2224 36003KT NSW SCT040
TEMPO 2303/2306 2500 BR
No reported NOTAMs for that airfield.
3 SIGMETs reported for the Marseille FIR (LFMM) :
 
Severe turbulence
LFMM SIGMET 3 VALID 220600/220700 LFPW
LFMM MARSEILLE FIR/UIR SEV TURB FCST WI N4545 E00700 - N4400 E00700 - N4400 E00715 - N4215 E00630 - N4315 E00500 - N4530 E00600 - N4545 E00700 SFC/FL120 STNR NC=
Severe turbulence
LFMM SIGMET 2 VALID 220400/220700 LFPW
LFMM MARSEILLE FIR/UIR SEV TURB FCST WI N4215 E00300 - N4215 E00230 - N4545 E00300 - N4600 E00400 - N4500 E00430 - N4215 E00300 SFC/FL080 STNR NC=
Severe turbulence
LFMM SIGMET 1 VALID 220300/220700 LFPW
LFMM MARSEILLE FIR/UIR SEV TURB FCST WI N4615 E00700 - N4400 E00700 - N4400 E00715 - N4315 E00645 - N4145 E00715 - N4145 E00600 - N4430 E00515 - N4615 E00700 SFC/FL120 STNR NC=



MET'MAP, your aeronautical weather chart ! - Copyright ORBIFLY December 2007 - Disclaimer

ORBIFLY MET'MAP TEAM :

Programming & Development : Alexandra Zaïnal
Concept & Development : Baudouin d'Aumeries
Co-Development & Prog : Marc-Olivier Méhu
Technical & hardware support : Manuel Goepfert

Contact : metmap@orbifly.com




SOURCES & CREDITS :

   NOAA